sensor_id;sensor_type;location;lat;lon;timestamp;temperature;humidity
2869;DHT22;1442;47.448;8.582;2024-02-26T00:01:44;8.20;99.90
2869;DHT22;1442;47.448;8.582;2024-02-26T00:04:11;8.20;99.90
2869;DHT22;1442;47.448;8.582;2024-02-26T00:06:39;8.10;99.90
2869;DHT22;1442;47.448;8.582;2024-02-26T00:09:06;8.10;99.90
2869;DHT22;1442;47.448;8.582;2024-02-26T00:11:33;8.10;99.90
2869;DHT22;1442;47.448;8.582;2024-02-26T00:14:00;8.00;99.90
2869;DHT22;1442;47.448;8.582;2024-02-26T00:16:27;8.00;99.90
2869;DHT22;1442;47.448;8.582;2024-02-26T00:18:54;8.00;99.90
2869;DHT22;1442;47.448;8.582;2024-02-26T00:21:20;8.00;99.90
2869;DHT22;1442;47.448;8.582;2024-02-26T00:23:49;8.00;99.90
2869;DHT22;1442;47.448;8.582;2024-02-26T00:26:16;8.00;99.90
2869;DHT22;1442;47.448;8.582;2024-02-26T00:28:43;8.00;99.90
2869;DHT22;1442;47.448;8.582;2024-02-26T00:31:10;8.10;99.90
2869;DHT22;1442;47.448;8.582;2024-02-26T00:33:37;8.10;99.90
2869;DHT22;1442;47.448;8.582;2024-02-26T00:36:05;8.10;99.90
2869;DHT22;1442;47.448;8.582;2024-02-26T00:38:32;8.10;99.90
2869;DHT22;1442;47.448;8.582;2024-02-26T00:41:00;8.10;99.90
2869;DHT22;1442;47.448;8.582;2024-02-26T00:43:26;8.00;99.90
2869;DHT22;1442;47.448;8.582;2024-02-26T00:45:53;8.00;99.90
2869;DHT22;1442;47.448;8.582;2024-02-26T00:48:20;8.10;99.90
2869;DHT22;1442;47.448;8.582;2024-02-26T00:50:47;8.00;99.90
2869;DHT22;1442;47.448;8.582;2024-02-26T00:53:13;7.90;99.90
2869;DHT22;1442;47.448;8.582;2024-02-26T00:55:40;7.90;99.90
2869;DHT22;1442;47.448;8.582;2024-02-26T00:58:09;7.90;99.90
2869;DHT22;1442;47.448;8.582;2024-02-26T01:00:36;7.90;99.90
2869;DHT22;1442;47.448;8.582;2024-02-26T01:03:03;7.90;99.90
2869;DHT22;1442;47.448;8.582;2024-02-26T01:05:30;7.80;99.90
2869;DHT22;1442;47.448;8.582;2024-02-26T01:07:57;7.80;99.90
2869;DHT22;1442;47.448;8.582;2024-02-26T01:10:23;7.80;99.90
2869;DHT22;1442;47.448;8.582;2024-02-26T01:12:50;7.80;99.90
2869;DHT22;1442;47.448;8.582;2024-02-26T01:15:18;7.80;99.90
2869;DHT22;1442;47.448;8.582;2024-02-26T01:17:49;7.80;99.90
2869;DHT22;1442;47.448;8.582;2024-02-26T01:20:15;7.80;99.90
2869;DHT22;1442;47.448;8.582;2024-02-26T01:22:42;7.80;99.90
2869;DHT22;1442;47.448;8.582;2024-02-26T01:25:10;7.80;99.90
2869;DHT22;1442;47.448;8.582;2024-02-26T01:27:37;7.80;99.90
2869;DHT22;1442;47.448;8.582;2024-02-26T01:30:04;7.80;99.90
2869;DHT22;1442;47.448;8.582;2024-02-26T01:32:33;7.80;99.90
2869;DHT22;1442;47.448;8.582;2024-02-26T01:35:01;7.80;99.90
2869;DHT22;1442;47.448;8.582;2024-02-26T01:37:28;7.80;99.90
2869;DHT22;1442;47.448;8.582;2024-02-26T01:39:55;7.80;99.90
2869;DHT22;1442;47.448;8.582;2024-02-26T01:42:22;7.90;99.90
2869;DHT22;1442;47.448;8.582;2024-02-26T01:44:48;7.90;99.90
2869;DHT22;1442;47.448;8.582;2024-02-26T01:47:15;7.90;99.90
2869;DHT22;1442;47.448;8.582;2024-02-26T01:49:43;7.90;99.90
2869;DHT22;1442;47.448;8.582;2024-02-26T01:52:11;7.90;99.90
2869;DHT22;1442;47.448;8.582;2024-02-26T01:54:38;7.90;99.90
2869;DHT22;1442;47.448;8.582;2024-02-26T01:57:06;7.90;99.90
2869;DHT22;1442;47.448;8.582;2024-02-26T01:59:34;7.90;99.90
2869;DHT22;1442;47.448;8.582;2024-02-26T02:02:03;7.90;99.90
2869;DHT22;1442;47.448;8.582;2024-02-26T02:04:32;7.90;99.90
2869;DHT22;1442;47.448;8.582;2024-02-26T02:07:00;7.90;99.90
2869;DHT22;1442;47.448;8.582;2024-02-26T02:09:28;7.90;99.90
2869;DHT22;1442;47.448;8.582;2024-02-26T02:11:55;7.90;99.90
2869;DHT22;1442;47.448;8.582;2024-02-26T02:14:22;8.00;99.90
2869;DHT22;1442;47.448;8.582;2024-02-26T02:16:49;7.90;99.90
2869;DHT22;1442;47.448;8.582;2024-02-26T02:19:16;7.90;99.90
2869;DHT22;1442;47.448;8.582;2024-02-26T02:21:44;8.00;99.90
2869;DHT22;1442;47.448;8.582;2024-02-26T02:24:10;8.00;99.90
2869;DHT22;1442;47.448;8.582;2024-02-26T02:26:38;8.00;99.90
2869;DHT22;1442;47.448;8.582;2024-02-26T02:29:06;8.00;99.90
2869;DHT22;1442;47.448;8.582;2024-02-26T02:31:33;8.10;99.90
2869;DHT22;1442;47.448;8.582;2024-02-26T02:34:00;8.10;99.90
2869;DHT22;1442;47.448;8.582;2024-02-26T02:36:27;8.10;99.90
2869;DHT22;1442;47.448;8.582;2024-02-26T02:38:55;8.10;99.90
2869;DHT22;1442;47.448;8.582;2024-02-26T02:41:22;8.10;99.90
2869;DHT22;1442;47.448;8.582;2024-02-26T02:43:49;8.10;99.90
2869;DHT22;1442;47.448;8.582;2024-02-26T02:46:15;8.10;99.90
2869;DHT22;1442;47.448;8.582;2024-02-26T02:48:42;8.10;99.90
2869;DHT22;1442;47.448;8.582;2024-02-26T02:51:09;8.10;99.90
2869;DHT22;1442;47.448;8.582;2024-02-26T02:53:36;8.20;99.90
2869;DHT22;1442;47.448;8.582;2024-02-26T02:56:05;8.20;99.90
2869;DHT22;1442;47.448;8.582;2024-02-26T02:58:32;8.20;99.90
2869;DHT22;1442;47.448;8.582;2024-02-26T03:00:59;8.20;99.90
2869;DHT22;1442;47.448;8.582;2024-02-26T03:03:26;8.20;99.90
2869;DHT22;1442;47.448;8.582;2024-02-26T03:05:54;8.20;99.90
2869;DHT22;1442;47.448;8.582;2024-02-26T03:08:21;8.20;99.90
2869;DHT22;1442;47.448;8.582;2024-02-26T03:10:48;8.20;99.90
2869;DHT22;1442;47.448;8.582;2024-02-26T03:13:16;8.20;99.90
2869;DHT22;1442;47.448;8.582;2024-02-26T03:15:42;8.20;99.90
2869;DHT22;1442;47.448;8.582;2024-02-26T03:18:09;8.20;99.90
2869;DHT22;1442;47.448;8.582;2024-02-26T03:20:36;8.20;99.90
2869;DHT22;1442;47.448;8.582;2024-02-26T03:23:03;8.30;99.90
2869;DHT22;1442;47.448;8.582;2024-02-26T03:25:30;8.30;99.90
2869;DHT22;1442;47.448;8.582;2024-02-26T03:27:57;8.30;99.90
2869;DHT22;1442;47.448;8.582;2024-02-26T03:30:25;8.30;99.90
2869;DHT22;1442;47.448;8.582;2024-02-26T03:32:52;8.30;99.90
2869;DHT22;1442;47.448;8.582;2024-02-26T03:35:18;8.20;99.90
2869;DHT22;1442;47.448;8.582;2024-02-26T03:37:46;8.20;99.90
2869;DHT22;1442;47.448;8.582;2024-02-26T03:40:13;8.10;99.90
2869;DHT22;1442;47.448;8.582;2024-02-26T03:42:40;8.10;99.90
2869;DHT22;1442;47.448;8.582;2024-02-26T03:45:07;8.10;99.90
2869;DHT22;1442;47.448;8.582;2024-02-26T03:47:37;8.10;99.90
2869;DHT22;1442;47.448;8.582;2024-02-26T03:50:06;8.10;99.90
2869;DHT22;1442;47.448;8.582;2024-02-26T03:52:33;8.10;99.90
2869;DHT22;1442;47.448;8.582;2024-02-26T03:55:00;8.10;99.90
2869;DHT22;1442;47.448;8.582;2024-02-26T03:57:27;8.00;99.90
2869;DHT22;1442;47.448;8.582;2024-02-26T03:59:53;8.00;99.90
2869;DHT22;1442;47.448;8.582;2024-02-26T04:02:20;7.90;99.90
2869;DHT22;1442;47.448;8.582;2024-02-26T04:04:49;7.90;99.90
2869;DHT22;1442;47.448;8.582;2024-02-26T04:07:16;7.90;99.90
2869;DHT22;1442;47.448;8.582;2024-02-26T04:09:43;7.90;99.90
2869;DHT22;1442;47.448;8.582;2024-02-26T04:12:10;7.80;99.90
2869;DHT22;1442;47.448;8.582;2024-02-26T04:14:37;7.80;99.90
2869;DHT22;1442;47.448;8.582;2024-02-26T04:17:04;7.90;99.90
2869;DHT22;1442;47.448;8.582;2024-02-26T04:19:30;7.90;99.90
2869;DHT22;1442;47.448;8.582;2024-02-26T04:21:59;7.90;99.90
2869;DHT22;1442;47.448;8.582;2024-02-26T04:24:26;7.90;99.90
2869;DHT22;1442;47.448;8.582;2024-02-26T04:26:53;7.90;99.90
2869;DHT22;1442;47.448;8.582;2024-02-26T04:29:19;7.90;99.90
2869;DHT22;1442;47.448;8.582;2024-02-26T04:31:46;7.80;99.90
2869;DHT22;1442;47.448;8.582;2024-02-26T04:34:13;7.70;99.90
2869;DHT22;1442;47.448;8.582;2024-02-26T04:36:40;7.70;99.90
2869;DHT22;1442;47.448;8.582;2024-02-26T04:39:09;7.60;99.90
2869;DHT22;1442;47.448;8.582;2024-02-26T04:41:36;7.60;99.90
2869;DHT22;1442;47.448;8.582;2024-02-26T04:44:03;7.60;99.90
2869;DHT22;1442;47.448;8.582;2024-02-26T04:46:30;7.60;99.90
2869;DHT22;1442;47.448;8.582;2024-02-26T04:48:57;7.60;99.90
2869;DHT22;1442;47.448;8.582;2024-02-26T04:51:24;7.60;99.90
2869;DHT22;1442;47.448;8.582;2024-02-26T04:53:50;7.60;99.90
2869;DHT22;1442;47.448;8.582;2024-02-26T04:56:20;7.60;99.90
2869;DHT22;1442;47.448;8.582;2024-02-26T04:58:47;7.60;99.90
2869;DHT22;1442;47.448;8.582;2024-02-26T05:01:14;7.70;99.90
2869;DHT22;1442;47.448;8.582;2024-02-26T05:03:42;7.70;99.90
2869;DHT22;1442;47.448;8.582;2024-02-26T05:06:09;7.70;99.90
2869;DHT22;1442;47.448;8.582;2024-02-26T05:08:35;7.70;99.90
2869;DHT22;1442;47.448;8.582;2024-02-26T05:11:04;7.70;99.90
2869;DHT22;1442;47.448;8.582;2024-02-26T05:13:32;7.70;99.90
2869;DHT22;1442;47.448;8.582;2024-02-26T05:15:59;7.70;99.90
2869;DHT22;1442;47.448;8.582;2024-02-26T05:18:26;7.70;99.90
2869;DHT22;1442;47.448;8.582;2024-02-26T05:20:52;7.70;99.90
2869;DHT22;1442;47.448;8.582;2024-02-26T05:23:19;7.80;99.90
2869;DHT22;1442;47.448;8.582;2024-02-26T05:25:46;7.80;99.90
2869;DHT22;1442;47.448;8.582;2024-02-26T05:28:13;7.80;99.90
2869;DHT22;1442;47.448;8.582;2024-02-26T05:30:42;7.80;99.90
2869;DHT22;1442;47.448;8.582;2024-02-26T05:33:09;7.80;99.90
2869;DHT22;1442;47.448;8.582;2024-02-26T05:35:36;7.90;99.90
2869;DHT22;1442;47.448;8.582;2024-02-26T05:38:03;7.90;99.90
2869;DHT22;1442;47.448;8.582;2024-02-26T05:40:30;7.90;99.90
2869;DHT22;1442;47.448;8.582;2024-02-26T05:42:56;7.90;99.90
2869;DHT22;1442;47.448;8.582;2024-02-26T05:45:22;7.90;99.90
2869;DHT22;1442;47.448;8.582;2024-02-26T05:47:50;7.90;99.90
2869;DHT22;1442;47.448;8.582;2024-02-26T05:50:17;8.00;99.90
2869;DHT22;1442;47.448;8.582;2024-02-26T05:52:44;8.00;99.90
2869;DHT22;1442;47.448;8.582;2024-02-26T05:55:11;8.00;99.90
2869;DHT22;1442;47.448;8.582;2024-02-26T05:57:38;8.00;99.90
2869;DHT22;1442;47.448;8.582;2024-02-26T06:00:06;8.00;99.90
2869;DHT22;1442;47.448;8.582;2024-02-26T06:02:33;8.00;99.90
2869;DHT22;1442;47.448;8.582;2024-02-26T06:05:01;7.90;99.90
2869;DHT22;1442;47.448;8.582;2024-02-26T06:07:28;7.90;99.90
2869;DHT22;1442;47.448;8.582;2024-02-26T06:09:55;7.90;99.90
2869;DHT22;1442;47.448;8.582;2024-02-26T06:12:22;8.00;99.90
2869;DHT22;1442;47.448;8.582;2024-02-26T06:14:49;7.90;99.90
2869;DHT22;1442;47.448;8.582;2024-02-26T06:17:16;7.90;99.90
2869;DHT22;1442;47.448;8.582;2024-02-26T06:19:42;8.00;99.90
2869;DHT22;1442;47.448;8.582;2024-02-26T06:22:11;7.90;99.90
2869;DHT22;1442;47.448;8.582;2024-02-26T06:24:37;7.90;99.90
2869;DHT22;1442;47.448;8.582;2024-02-26T06:27:04;7.90;99.90
2869;DHT22;1442;47.448;8.582;2024-02-26T06:29:31;7.90;99.90
2869;DHT22;1442;47.448;8.582;2024-02-26T06:31:58;7.80;99.90
2869;DHT22;1442;47.448;8.582;2024-02-26T06:34:24;7.80;99.90
2869;DHT22;1442;47.448;8.582;2024-02-26T06:36:51;7.90;99.90
2869;DHT22;1442;47.448;8.582;2024-02-26T06:39:19;7.90;99.90
2869;DHT22;1442;47.448;8.582;2024-02-26T06:41:46;7.90;99.90
2869;DHT22;1442;47.448;8.582;2024-02-26T06:44:13;7.90;99.90
2869;DHT22;1442;47.448;8.582;2024-02-26T06:46:40;7.90;99.90
2869;DHT22;1442;47.448;8.582;2024-02-26T06:49:07;7.90;99.90
2869;DHT22;1442;47.448;8.582;2024-02-26T06:51:33;7.90;99.90
2869;DHT22;1442;47.448;8.582;2024-02-26T06:54:00;7.90;99.90
2869;DHT22;1442;47.448;8.582;2024-02-26T06:56:28;8.00;99.90
2869;DHT22;1442;47.448;8.582;2024-02-26T06:58:55;8.00;99.90
2869;DHT22;1442;47.448;8.582;2024-02-26T07:01:22;8.10;99.90
2869;DHT22;1442;47.448;8.582;2024-02-26T07:03:48;8.10;99.90
2869;DHT22;1442;47.448;8.582;2024-02-26T07:06:15;8.10;99.90
2869;DHT22;1442;47.448;8.582;2024-02-26T07:08:42;8.10;99.90
2869;DHT22;1442;47.448;8.582;2024-02-26T07:11:09;8.10;99.90
2869;DHT22;1442;47.448;8.582;2024-02-26T07:13:38;8.10;99.90
2869;DHT22;1442;47.448;8.582;2024-02-26T07:16:05;8.10;99.90
2869;DHT22;1442;47.448;8.582;2024-02-26T07:18:32;8.10;99.90
2869;DHT22;1442;47.448;8.582;2024-02-26T07:21:01;8.10;99.90
2869;DHT22;1442;47.448;8.582;2024-02-26T07:23:28;8.10;99.90
2869;DHT22;1442;47.448;8.582;2024-02-26T07:25:55;8.10;99.90
2869;DHT22;1442;47.448;8.582;2024-02-26T07:28:22;8.10;99.90
2869;DHT22;1442;47.448;8.582;2024-02-26T07:30:50;8.10;99.90
2869;DHT22;1442;47.448;8.582;2024-02-26T07:33:17;8.10;99.90
2869;DHT22;1442;47.448;8.582;2024-02-26T07:35:44;8.10;99.90
2869;DHT22;1442;47.448;8.582;2024-02-26T07:38:10;8.10;99.90
2869;DHT22;1442;47.448;8.582;2024-02-26T07:40:38;8.20;99.90
2869;DHT22;1442;47.448;8.582;2024-02-26T07:43:05;8.20;99.90
2869;DHT22;1442;47.448;8.582;2024-02-26T07:45:32;8.30;99.90
2869;DHT22;1442;47.448;8.582;2024-02-26T07:48:00;8.30;99.90
2869;DHT22;1442;47.448;8.582;2024-02-26T07:50:27;8.40;99.90
2869;DHT22;1442;47.448;8.582;2024-02-26T07:52:53;8.40;99.90
2869;DHT22;1442;47.448;8.582;2024-02-26T07:55:20;8.50;99.90
2869;DHT22;1442;47.448;8.582;2024-02-26T07:57:48;8.50;99.90
2869;DHT22;1442;47.448;8.582;2024-02-26T08:00:15;8.60;99.90
2869;DHT22;1442;47.448;8.582;2024-02-26T08:02:43;8.60;99.90
2869;DHT22;1442;47.448;8.582;2024-02-26T08:05:11;8.60;99.90
2869;DHT22;1442;47.448;8.582;2024-02-26T08:07:38;8.70;99.90
2869;DHT22;1442;47.448;8.582;2024-02-26T08:10:05;8.70;99.90
2869;DHT22;1442;47.448;8.582;2024-02-26T08:12:31;8.80;99.90
2869;DHT22;1442;47.448;8.582;2024-02-26T08:14:59;8.90;99.90
2869;DHT22;1442;47.448;8.582;2024-02-26T08:17:26;9.00;99.90
2869;DHT22;1442;47.448;8.582;2024-02-26T08:19:53;9.00;99.90
2869;DHT22;1442;47.448;8.582;2024-02-26T08:22:21;9.10;99.90
2869;DHT22;1442;47.448;8.582;2024-02-26T08:24:48;9.00;99.90
2869;DHT22;1442;47.448;8.582;2024-02-26T08:27:15;9.10;99.90
2869;DHT22;1442;47.448;8.582;2024-02-26T08:29:41;9.10;99.90
2869;DHT22;1442;47.448;8.582;2024-02-26T08:32:08;9.20;99.90
2869;DHT22;1442;47.448;8.582;2024-02-26T08:34:35;9.20;99.90
2869;DHT22;1442;47.448;8.582;2024-02-26T08:37:02;9.20;99.90
2869;DHT22;1442;47.448;8.582;2024-02-26T08:39:30;9.30;99.90
2869;DHT22;1442;47.448;8.582;2024-02-26T08:41:57;9.30;99.90
2869;DHT22;1442;47.448;8.582;2024-02-26T08:44:24;9.30;99.90
2869;DHT22;1442;47.448;8.582;2024-02-26T08:46:51;9.40;99.90
2869;DHT22;1442;47.448;8.582;2024-02-26T08:49:18;9.40;99.90
2869;DHT22;1442;47.448;8.582;2024-02-26T08:51:45;9.40;99.90
2869;DHT22;1442;47.448;8.582;2024-02-26T08:54:12;9.40;99.90
2869;DHT22;1442;47.448;8.582;2024-02-26T08:56:40;9.50;99.90
2869;DHT22;1442;47.448;8.582;2024-02-26T08:59:06;9.50;99.90
2869;DHT22;1442;47.448;8.582;2024-02-26T09:01:33;9.50;99.90
2869;DHT22;1442;47.448;8.582;2024-02-26T09:04:00;9.50;99.90
2869;DHT22;1442;47.448;8.582;2024-02-26T09:06:27;9.50;99.90
2869;DHT22;1442;47.448;8.582;2024-02-26T09:08:55;9.60;99.90
2869;DHT22;1442;47.448;8.582;2024-02-26T09:11:21;9.60;99.90
2869;DHT22;1442;47.448;8.582;2024-02-26T09:13:49;9.70;99.90
2869;DHT22;1442;47.448;8.582;2024-02-26T09:16:16;9.70;99.90
2869;DHT22;1442;47.448;8.582;2024-02-26T09:18:43;9.80;99.90
2869;DHT22;1442;47.448;8.582;2024-02-26T09:21:10;9.90;99.90
2869;DHT22;1442;47.448;8.582;2024-02-26T09:23:36;9.90;99.90
2869;DHT22;1442;47.448;8.582;2024-02-26T09:26:05;9.90;99.90
2869;DHT22;1442;47.448;8.582;2024-02-26T09:28:32;9.90;99.90
2869;DHT22;1442;47.448;8.582;2024-02-26T09:31:04;9.90;99.90
2869;DHT22;1442;47.448;8.582;2024-02-26T09:33:31;10.00;99.90
2869;DHT22;1442;47.448;8.582;2024-02-26T09:35:58;10.00;99.90
2869;DHT22;1442;47.448;8.582;2024-02-26T09:38:26;10.00;99.90
2869;DHT22;1442;47.448;8.582;2024-02-26T09:40:52;10.10;99.90
2869;DHT22;1442;47.448;8.582;2024-02-26T09:43:22;10.10;99.90
2869;DHT22;1442;47.448;8.582;2024-02-26T09:45:50;10.10;99.90
2869;DHT22;1442;47.448;8.582;2024-02-26T09:48:18;10.10;99.90
2869;DHT22;1442;47.448;8.582;2024-02-26T09:50:46;10.10;99.90
2869;DHT22;1442;47.448;8.582;2024-02-26T09:53:13;10.10;99.90
2869;DHT22;1442;47.448;8.582;2024-02-26T09:55:40;10.10;99.90
2869;DHT22;1442;47.448;8.582;2024-02-26T09:58:07;10.20;99.90
2869;DHT22;1442;47.448;8.582;2024-02-26T10:00:37;10.30;99.90
2869;DHT22;1442;47.448;8.582;2024-02-26T10:03:05;10.30;99.90
2869;DHT22;1442;47.448;8.582;2024-02-26T10:05:34;10.30;99.90
2869;DHT22;1442;47.448;8.582;2024-02-26T10:08:01;10.40;99.90
2869;DHT22;1442;47.448;8.582;2024-02-26T10:10:29;10.40;99.90
2869;DHT22;1442;47.448;8.582;2024-02-26T10:12:57;10.40;99.90
2869;DHT22;1442;47.448;8.582;2024-02-26T10:15:24;10.50;99.90
2869;DHT22;1442;47.448;8.582;2024-02-26T10:17:51;10.50;99.90
2869;DHT22;1442;47.448;8.582;2024-02-26T10:20:19;10.60;99.90
2869;DHT22;1442;47.448;8.582;2024-02-26T10:22:48;10.60;99.90
2869;DHT22;1442;47.448;8.582;2024-02-26T10:25:16;10.60;99.90
2869;DHT22;1442;47.448;8.582;2024-02-26T10:27:42;10.60;99.90
2869;DHT22;1442;47.448;8.582;2024-02-26T10:30:17;10.60;99.90
2869;DHT22;1442;47.448;8.582;2024-02-26T10:32:45;10.70;99.90
2869;DHT22;1442;47.448;8.582;2024-02-26T10:35:12;10.70;99.90
2869;DHT22;1442;47.448;8.582;2024-02-26T10:37:40;10.70;99.90
2869;DHT22;1442;47.448;8.582;2024-02-26T10:40:10;10.70;99.90
2869;DHT22;1442;47.448;8.582;2024-02-26T10:42:37;10.80;99.90
2869;DHT22;1442;47.448;8.582;2024-02-26T10:45:05;10.80;99.90
2869;DHT22;1442;47.448;8.582;2024-02-26T10:47:32;10.80;99.90
2869;DHT22;1442;47.448;8.582;2024-02-26T10:50:00;10.70;99.90
2869;DHT22;1442;47.448;8.582;2024-02-26T10:52:31;10.80;99.90
2869;DHT22;1442;47.448;8.582;2024-02-26T10:55:00;10.80;99.90
2869;DHT22;1442;47.448;8.582;2024-02-26T10:57:33;10.80;99.90
2869;DHT22;1442;47.448;8.582;2024-02-26T11:00:00;10.80;99.90
2869;DHT22;1442;47.448;8.582;2024-02-26T11:02:31;10.80;99.90
2869;DHT22;1442;47.448;8.582;2024-02-26T11:04:59;10.90;99.90
2869;DHT22;1442;47.448;8.582;2024-02-26T11:07:26;10.90;99.90
2869;DHT22;1442;47.448;8.582;2024-02-26T11:09:55;10.90;99.90
2869;DHT22;1442;47.448;8.582;2024-02-26T11:12:23;11.00;99.90
2869;DHT22;1442;47.448;8.582;2024-02-26T11:14:52;10.90;99.90
2869;DHT22;1442;47.448;8.582;2024-02-26T11:17:22;11.00;99.90
2869;DHT22;1442;47.448;8.582;2024-02-26T11:19:54;11.00;99.90
2869;DHT22;1442;47.448;8.582;2024-02-26T11:22:21;11.00;99.90
2869;DHT22;1442;47.448;8.582;2024-02-26T11:24:49;11.10;99.90
2869;DHT22;1442;47.448;8.582;2024-02-26T11:27:17;11.10;99.90
2869;DHT22;1442;47.448;8.582;2024-02-26T11:29:48;11.20;99.90
2869;DHT22;1442;47.448;8.582;2024-02-26T11:32:17;11.20;99.90
2869;DHT22;1442;47.448;8.582;2024-02-26T11:34:44;11.30;99.90
2869;DHT22;1442;47.448;8.582;2024-02-26T11:37:11;11.30;99.90
2869;DHT22;1442;47.448;8.582;2024-02-26T11:39:40;11.40;99.90
2869;DHT22;1442;47.448;8.582;2024-02-26T11:42:07;11.40;99.90
2869;DHT22;1442;47.448;8.582;2024-02-26T11:44:35;11.40;99.90
2869;DHT22;1442;47.448;8.582;2024-02-26T11:47:10;11.40;99.90
2869;DHT22;1442;47.448;8.582;2024-02-26T11:49:39;11.40;99.90
2869;DHT22;1442;47.448;8.582;2024-02-26T11:52:08;11.50;99.90
2869;DHT22;1442;47.448;8.582;2024-02-26T11:54:53;11.40;99.90
2869;DHT22;1442;47.448;8.582;2024-02-26T11:57:24;11.50;99.90
2869;DHT22;1442;47.448;8.582;2024-02-26T11:59:52;11.50;99.90
2869;DHT22;1442;47.448;8.582;2024-02-26T12:02:38;11.50;99.90
2869;DHT22;1442;47.448;8.582;2024-02-26T12:05:08;11.50;99.90
2869;DHT22;1442;47.448;8.582;2024-02-26T12:07:39;11.50;99.90
2869;DHT22;1442;47.448;8.582;2024-02-26T12:10:16;11.50;99.90
2869;DHT22;1442;47.448;8.582;2024-02-26T12:12:43;11.50;99.90
2869;DHT22;1442;47.448;8.582;2024-02-26T12:15:11;11.50;99.90
2869;DHT22;1442;47.448;8.582;2024-02-26T12:17:38;11.50;99.90
2869;DHT22;1442;47.448;8.582;2024-02-26T12:20:13;11.50;99.90
2869;DHT22;1442;47.448;8.582;2024-02-26T12:22:40;11.60;99.90
2869;DHT22;1442;47.448;8.582;2024-02-26T12:25:09;11.60;99.90
2869;DHT22;1442;47.448;8.582;2024-02-26T12:27:36;11.70;99.90
2869;DHT22;1442;47.448;8.582;2024-02-26T12:30:02;11.70;99.90
2869;DHT22;1442;47.448;8.582;2024-02-26T12:32:30;11.70;99.90
2869;DHT22;1442;47.448;8.582;2024-02-26T12:34:57;11.80;99.90
2869;DHT22;1442;47.448;8.582;2024-02-26T12:37:25;11.70;99.90
2869;DHT22;1442;47.448;8.582;2024-02-26T12:39:52;11.80;99.90
2869;DHT22;1442;47.448;8.582;2024-02-26T12:42:19;11.80;99.90
2869;DHT22;1442;47.448;8.582;2024-02-26T12:44:46;11.80;99.90
2869;DHT22;1442;47.448;8.582;2024-02-26T12:47:13;11.90;99.90
2869;DHT22;1442;47.448;8.582;2024-02-26T12:49:42;11.90;99.90
2869;DHT22;1442;47.448;8.582;2024-02-26T12:52:10;12.00;99.90
2869;DHT22;1442;47.448;8.582;2024-02-26T12:54:38;12.10;99.90
2869;DHT22;1442;47.448;8.582;2024-02-26T12:57:07;12.10;99.90
2869;DHT22;1442;47.448;8.582;2024-02-26T12:59:35;12.20;99.90
2869;DHT22;1442;47.448;8.582;2024-02-26T13:02:03;12.20;99.90
2869;DHT22;1442;47.448;8.582;2024-02-26T13:04:31;12.20;99.90
2869;DHT22;1442;47.448;8.582;2024-02-26T13:06:58;12.20;99.90
2869;DHT22;1442;47.448;8.582;2024-02-26T13:09:28;12.20;99.90
2869;DHT22;1442;47.448;8.582;2024-02-26T13:11:56;12.30;99.90
2869;DHT22;1442;47.448;8.582;2024-02-26T13:14:24;12.30;99.90
2869;DHT22;1442;47.448;8.582;2024-02-26T13:16:55;12.40;99.90
2869;DHT22;1442;47.448;8.582;2024-02-26T13:19:22;12.40;99.90
2869;DHT22;1442;47.448;8.582;2024-02-26T13:21:49;12.40;99.90
2869;DHT22;1442;47.448;8.582;2024-02-26T13:24:15;12.40;99.90
2869;DHT22;1442;47.448;8.582;2024-02-26T13:26:43;12.30;99.90
2869;DHT22;1442;47.448;8.582;2024-02-26T13:29:18;12.30;99.90
2869;DHT22;1442;47.448;8.582;2024-02-26T13:31:45;12.30;99.90
2869;DHT22;1442;47.448;8.582;2024-02-26T13:34:22;12.30;99.90
2869;DHT22;1442;47.448;8.582;2024-02-26T13:36:49;12.30;99.90
2869;DHT22;1442;47.448;8.582;2024-02-26T13:39:21;12.40;99.90
2869;DHT22;1442;47.448;8.582;2024-02-26T13:41:49;12.40;99.90
2869;DHT22;1442;47.448;8.582;2024-02-26T13:44:16;12.30;99.90
2869;DHT22;1442;47.448;8.582;2024-02-26T13:46:44;12.30;99.90
2869;DHT22;1442;47.448;8.582;2024-02-26T13:49:10;12.30;99.90
2869;DHT22;1442;47.448;8.582;2024-02-26T13:51:37;12.30;99.90
2869;DHT22;1442;47.448;8.582;2024-02-26T13:54:04;12.20;99.90
2869;DHT22;1442;47.448;8.582;2024-02-26T13:56:31;12.30;99.90
2869;DHT22;1442;47.448;8.582;2024-02-26T13:58:58;12.20;99.90
2869;DHT22;1442;47.448;8.582;2024-02-26T14:01:25;12.20;99.90
2869;DHT22;1442;47.448;8.582;2024-02-26T14:03:54;12.20;99.90
2869;DHT22;1442;47.448;8.582;2024-02-26T14:06:23;12.20;99.90
2869;DHT22;1442;47.448;8.582;2024-02-26T14:08:49;12.10;99.90
2869;DHT22;1442;47.448;8.582;2024-02-26T14:11:16;12.10;99.90
2869;DHT22;1442;47.448;8.582;2024-02-26T14:13:43;12.00;99.90
2869;DHT22;1442;47.448;8.582;2024-02-26T14:16:12;12.00;99.90
2869;DHT22;1442;47.448;8.582;2024-02-26T14:18:39;12.00;99.90
2869;DHT22;1442;47.448;8.582;2024-02-26T14:21:07;12.00;99.90
2869;DHT22;1442;47.448;8.582;2024-02-26T14:23:35;12.00;99.90
2869;DHT22;1442;47.448;8.582;2024-02-26T14:26:03;12.00;99.90
2869;DHT22;1442;47.448;8.582;2024-02-26T14:28:29;12.00;99.90
2869;DHT22;1442;47.448;8.582;2024-02-26T14:30:57;11.90;99.90
2869;DHT22;1442;47.448;8.582;2024-02-26T14:33:24;11.90;99.90
2869;DHT22;1442;47.448;8.582;2024-02-26T14:35:50;11.90;99.90
2869;DHT22;1442;47.448;8.582;2024-02-26T14:38:18;11.80;99.90
2869;DHT22;1442;47.448;8.582;2024-02-26T14:40:45;11.80;99.90
2869;DHT22;1442;47.448;8.582;2024-02-26T14:43:12;11.80;99.90
2869;DHT22;1442;47.448;8.582;2024-02-26T14:45:39;11.80;99.90
2869;DHT22;1442;47.448;8.582;2024-02-26T14:48:06;11.80;99.90
2869;DHT22;1442;47.448;8.582;2024-02-26T14:50:33;11.80;99.90
2869;DHT22;1442;47.448;8.582;2024-02-26T14:53:00;11.80;99.90
2869;DHT22;1442;47.448;8.582;2024-02-26T14:55:29;11.80;99.90
2869;DHT22;1442;47.448;8.582;2024-02-26T14:57:56;11.80;99.90
2869;DHT22;1442;47.448;8.582;2024-02-26T15:00:22;11.70;99.90
2869;DHT22;1442;47.448;8.582;2024-02-26T15:02:49;11.70;99.90
2869;DHT22;1442;47.448;8.582;2024-02-26T15:05:17;11.70;99.90
2869;DHT22;1442;47.448;8.582;2024-02-26T15:07:45;11.70;99.90
2869;DHT22;1442;47.448;8.582;2024-02-26T15:10:12;11.70;99.90
2869;DHT22;1442;47.448;8.582;2024-02-26T15:12:40;11.70;99.90
2869;DHT22;1442;47.448;8.582;2024-02-26T15:15:08;11.80;99.90
2869;DHT22;1442;47.448;8.582;2024-02-26T15:17:34;11.70;99.90
2869;DHT22;1442;47.448;8.582;2024-02-26T15:20:01;11.70;99.90
2869;DHT22;1442;47.448;8.582;2024-02-26T15:22:28;11.70;99.90
2869;DHT22;1442;47.448;8.582;2024-02-26T15:24:55;11.60;99.90
2869;DHT22;1442;47.448;8.582;2024-02-26T15:27:21;11.60;99.90
2869;DHT22;1442;47.448;8.582;2024-02-26T15:29:49;11.60;99.90
2869;DHT22;1442;47.448;8.582;2024-02-26T15:32:23;11.60;99.90
2869;DHT22;1442;47.448;8.582;2024-02-26T15:34:52;11.60;99.90
2869;DHT22;1442;47.448;8.582;2024-02-26T15:37:19;11.60;99.90
2869;DHT22;1442;47.448;8.582;2024-02-26T15:39:46;11.60;99.90
2869;DHT22;1442;47.448;8.582;2024-02-26T15:42:13;11.60;99.90
2869;DHT22;1442;47.448;8.582;2024-02-26T15:44:40;11.60;99.90
2869;DHT22;1442;47.448;8.582;2024-02-26T15:47:08;11.70;99.90
2869;DHT22;1442;47.448;8.582;2024-02-26T15:49:35;11.70;99.90
2869;DHT22;1442;47.448;8.582;2024-02-26T15:52:02;11.80;99.90
2869;DHT22;1442;47.448;8.582;2024-02-26T15:54:29;11.70;99.90
2869;DHT22;1442;47.448;8.582;2024-02-26T15:56:56;11.70;99.90
2869;DHT22;1442;47.448;8.582;2024-02-26T15:59:23;11.70;99.90
2869;DHT22;1442;47.448;8.582;2024-02-26T16:01:50;11.70;99.90
2869;DHT22;1442;47.448;8.582;2024-02-26T16:04:18;11.70;99.90
2869;DHT22;1442;47.448;8.582;2024-02-26T16:06:48;11.70;99.90
2869;DHT22;1442;47.448;8.582;2024-02-26T16:09:16;11.70;99.90
2869;DHT22;1442;47.448;8.582;2024-02-26T16:11:43;11.70;99.90
2869;DHT22;1442;47.448;8.582;2024-02-26T16:14:15;11.60;99.90